Time;durP1;ratioP1;P1;durP2;ratioP2;P2;SDS_P1;SDS_P2;PMS_P1;PMS_P2;Temp;Humidity;BMP_temperature;BMP_pressure;BME280_temperature;BME280_humidity;BME280_pressure;Samples;Min_cycle;Max_cycle;Signal;HPM_P1;HPM_P2
2022/03/27 00:01:31;;;;;;;8.57;7.30;;;;;;;;;;4973017;28;20173;-67
2022/03/27 00:03:57;;;;;;;8.20;7.33;;;9.20;99.90;;;;;;4973556;28;20528;-67
2022/03/27 00:06:22;;;;;;;8.93;7.70;;;9.30;99.90;;;;;;4972780;28;20034;-67
2022/03/27 00:08:48;;;;;;;9.13;7.83;;;9.30;99.90;;;;;;4972769;28;20066;-67
2022/03/27 00:11:26;;;;;;;9.47;7.40;;;9.50;99.90;;;;;;4973124;28;20051;-67
2022/03/27 00:13:59;;;;;;;10.60;7.53;;;9.40;99.90;;;;;;4973414;28;20034;-67
2022/03/27 00:16:25;;;;;;;9.83;7.70;;;9.50;99.90;;;;;;4972969;28;20027;-67
2022/03/27 00:18:51;;;;;;;8.43;7.53;;;;;;;;;;4973098;28;20443;-67
2022/03/27 00:21:17;;;;;;;9.50;8.17;;;9.50;99.90;;;;;;4971767;28;20495;-67
2022/03/27 00:23:43;;;;;;;11.50;8.77;;;9.70;99.90;;;;;;4966292;28;20158;-67
2022/03/27 00:26:10;;;;;;;9.70;7.80;;;9.70;99.90;;;;;;4972980;28;20026;-67
2022/03/27 00:28:36;;;;;;;10.80;8.87;;;;;;;;;;4972888;28;20928;-67
2022/03/27 00:31:04;;;;;;;11.40;8.13;;;9.50;99.90;;;;;;4972908;28;20519;-67
2022/03/27 00:33:30;;;;;;;10.70;9.60;;;;;;;;;;4973073;28;20066;-67
2022/03/27 00:35:56;;;;;;;11.10;8.80;;;;;;;;;;4966808;28;20039;-67
2022/03/27 00:38:22;;;;;;;11.77;8.93;;;9.70;99.90;;;;;;4971651;28;20030;-67
2022/03/27 00:40:51;;;;;;;10.27;8.77;;;9.60;99.90;;;;;;4972765;28;20041;-67
2022/03/27 00:43:21;;;;;;;11.90;10.20;;;9.60;99.90;;;;;;4972373;28;20045;-67
2022/03/27 00:45:47;;;;;;;11.80;10.27;;;9.60;99.90;;;;;;4973073;28;20031;-67
2022/03/27 00:48:14;;;;;;;10.93;9.50;;;9.60;99.90;;;;;;4972564;28;20027;-67
2022/03/27 00:50:41;;;;;;;9.73;8.33;;;9.60;99.90;;;;;;4966489;28;20039;-67
2022/03/27 00:53:06;;;;;;;13.90;10.23;;;9.60;99.90;;;;;;4972339;28;20447;-67
2022/03/27 00:55:33;;;;;;;22.33;16.60;;;;;;;;;;4972475;28;20062;-67
2022/03/27 00:57:58;;;;;;;17.23;14.70;;;10.00;99.90;;;;;;4970897;28;20026;-67
2022/03/27 01:00:39;;;;;;;16.70;13.53;;;9.60;99.90;;;;;;4972255;28;20039;-67
2022/03/27 01:03:13;;;;;;;13.03;11.47;;;9.70;99.90;;;;;;4972267;28;20041;-67
2022/03/27 01:05:39;;;;;;;;;;;9.50;99.90;;;;;;4972370;28;20109;-67
2022/03/27 01:08:06;;;;;;;10.73;9.37;;;9.40;99.90;;;;;;4968371;28;20327;-67
2022/03/27 01:10:32;;;;;;;10.57;9.03;;;9.40;99.90;;;;;;4966037;28;20043;-66
2022/03/27 01:12:58;;;;;;;12.63;9.07;;;9.30;99.90;;;;;;4972383;28;20023;-67
2022/03/27 01:15:52;;;;;;;12.60;11.30;;;9.30;99.90;;;;;;4970791;28;20061;-67
2022/03/27 01:18:18;;;;;;;14.25;10.27;;;9.40;99.90;;;;;;4967342;28;20038;-67
2022/03/27 01:20:44;;;;;;;14.63;11.80;;;9.40;99.90;;;;;;4970443;28;20043;-67
2022/03/27 01:23:11;;;;;;;13.77;10.20;;;9.30;99.90;;;;;;4971949;28;20026;-67
2022/03/27 01:25:39;;;;;;;15.20;12.70;;;9.40;99.90;;;;;;4971783;28;20023;-67
2022/03/27 01:28:05;;;;;;;15.70;13.30;;;9.40;99.90;;;;;;4971417;28;20030;-67
2022/03/27 01:30:31;;;;;;;13.80;11.70;;;9.30;99.90;;;;;;4971884;28;20084;-67
2022/03/27 01:32:57;;;;;;;17.17;13.77;;;9.30;99.90;;;;;;4971849;28;20391;-67
2022/03/27 01:35:23;;;;;;;14.90;12.73;;;9.40;99.90;;;;;;4971320;28;20023;-67
2022/03/27 01:37:49;;;;;;;16.07;11.97;;;9.50;99.90;;;;;;4971888;28;20035;-67
2022/03/27 01:40:16;;;;;;;12.40;11.10;;;9.20;99.90;;;;;;4968426;28;20480;-67
2022/03/27 01:42:41;;;;;;;14.70;12.57;;;9.20;99.90;;;;;;4972017;28;20039;-67
2022/03/27 01:45:08;;;;;;;15.73;14.03;;;9.40;99.90;;;;;;4971636;28;20034;-67
2022/03/27 01:47:34;;;;;;;19.27;14.93;;;9.30;99.90;;;;;;4971550;28;20054;-67
2022/03/27 01:50:04;;;;;;;16.63;14.33;;;9.30;99.90;;;;;;4971076;28;20076;-67
2022/03/27 01:52:30;;;;;;;14.30;12.70;;;;;;;;;;4971248;28;20033;-67
2022/03/27 01:54:55;;;;;;;17.00;14.53;;;9.20;99.90;;;;;;4964891;28;20032;-67
2022/03/27 01:57:21;;;;;;;17.10;14.57;;;;;;;;;;4971413;28;20114;-67
2022/03/27 01:59:47;;;;;;;18.70;14.57;;;9.30;99.90;;;;;;4971761;28;20415;-67
2022/03/27 02:02:13;;;;;;;15.33;13.60;;;;;;;;;;4965078;28;20478;-67
2022/03/27 02:04:38;;;;;;;17.57;14.10;;;9.20;99.90;;;;;;4970745;28;20030;-67
2022/03/27 02:07:04;;;;;;;17.43;15.43;;;9.20;99.90;;;;;;4971323;28;20033;-67
2022/03/27 02:09:30;;;;;;;17.67;14.57;;;;;;;;;;4966224;28;20036;-67
2022/03/27 02:11:56;;;;;;;17.40;15.27;;;9.10;99.90;;;;;;4970333;28;20043;-67
2022/03/27 02:14:21;;;;;;;21.07;15.07;;;9.00;99.90;;;;;;4969991;28;20031;-67
2022/03/27 02:16:47;;;;;;;21.33;17.37;;;9.00;99.90;;;;;;4971546;28;20026;-67
2022/03/27 02:19:13;;;;;;;18.53;13.97;;;;;;;;;;4968074;28;20027;-67
2022/03/27 02:21:41;;;;;;;19.83;15.37;;;9.10;99.90;;;;;;4969341;28;20042;-67
2022/03/27 02:24:08;;;;;;;15.73;13.17;;;9.10;99.90;;;;;;4971194;28;20027;-67
2022/03/27 02:26:33;;;;;;;17.83;14.80;;;9.00;99.90;;;;;;4971143;28;20027;-67
2022/03/27 02:28:59;;;;;;;17.57;13.23;;;;;;;;;;4969973;28;20038;-67
2022/03/27 02:31:25;;;;;;;15.93;13.77;;;;;;;;;;4970469;28;20035;-67
2022/03/27 02:33:51;;;;;;;18.73;14.37;;;;;;;;;;4970296;28;20031;-67
2022/03/27 02:36:17;;;;;;;14.90;13.30;;;9.20;99.90;;;;;;4971060;28;20030;-68
2022/03/27 02:38:43;;;;;;;17.77;14.07;;;9.10;99.90;;;;;;4971103;28;20067;-67
2022/03/27 02:41:09;;;;;;;18.00;13.60;;;9.10;99.90;;;;;;4970758;28;20496;-67
2022/03/27 02:43:38;;;;;;;14.83;12.67;;;9.20;99.90;;;;;;4969427;28;20117;-67
2022/03/27 02:46:05;;;;;;;14.87;12.80;;;9.10;99.90;;;;;;4963975;28;20524;-67
2022/03/27 02:48:34;;;;;;;15.07;12.77;;;9.00;99.90;;;;;;4970116;28;20039;-67
2022/03/27 02:50:59;;;;;;;15.77;12.43;;;8.90;99.90;;;;;;4970960;28;20550;-67
2022/03/27 02:53:25;;;;;;;16.53;13.63;;;8.80;99.90;;;;;;4970801;28;20041;-67
2022/03/27 02:55:50;;;;;;;16.83;12.30;;;8.70;99.90;;;;;;4970745;28;20034;-67
2022/03/27 02:58:16;;;;;;;16.87;12.90;;;8.60;99.90;;;;;;4970778;28;20086;-67
2022/03/27 03:00:42;;;;;;;13.40;10.97;;;8.60;99.90;;;;;;4965477;28;20041;-67
2022/03/27 03:03:09;;;;;;;14.10;11.57;;;8.60;99.90;;;;;;4970360;28;20436;-67
2022/03/27 03:05:39;;;;;;;16.77;13.73;;;8.30;99.90;;;;;;4970724;28;20031;-67
2022/03/27 03:08:06;;;;;;;16.30;12.60;;;8.70;99.90;;;;;;4972532;28;20035;-67
2022/03/27 03:10:32;;;;;;;22.77;15.67;;;8.60;99.90;;;;;;4973230;28;20564;-67
2022/03/27 03:12:58;;;;;;;16.07;12.13;;;8.70;99.90;;;;;;4972108;28;20043;-67
2022/03/27 03:15:24;;;;;;;16.43;12.43;;;8.70;99.90;;;;;;4969376;28;20035;-67
2022/03/27 03:17:50;;;;;;;16.73;12.87;;;8.70;99.90;;;;;;4967239;28;20499;-67
2022/03/27 03:20:16;;;;;;;17.40;14.37;;;;;;;;;;4974562;28;20373;-67
2022/03/27 03:22:42;;;;;;;18.43;14.10;;;8.70;99.90;;;;;;4974501;28;20038;-67
2022/03/27 03:25:09;;;;;;;17.87;13.00;;;8.70;99.90;;;;;;4974306;28;20037;-67
2022/03/27 03:27:36;;;;;;;17.47;13.47;;;8.60;99.90;;;;;;4968041;28;20066;-67
2022/03/27 03:30:02;;;;;;;18.40;14.17;;;8.70;99.90;;;;;;4961498;28;20086;-67
2022/03/27 03:32:28;;;;;;;16.83;12.53;;;8.70;99.90;;;;;;4974098;28;20035;-67
2022/03/27 03:34:54;;;;;;;17.90;13.10;;;8.60;99.90;;;;;;4974305;28;20035;-67
2022/03/27 03:37:19;;;;;;;15.67;11.23;;;8.60;99.90;;;;;;4974075;28;20035;-67
2022/03/27 03:39:46;;;;;;;17.60;12.67;;;8.60;99.90;;;;;;4974522;28;20396;-68
2022/03/27 03:42:12;;;;;;;18.10;12.40;;;8.50;99.90;;;;;;4956603;28;20042;-67
2022/03/27 03:44:37;;;;;;;20.83;12.73;;;8.60;99.90;;;;;;4972563;28;20391;-67
2022/03/27 03:47:03;;;;;;;20.30;13.50;;;8.60;99.90;;;;;;4973985;28;20039;-67
2022/03/27 03:49:29;;;;;;;18.07;12.70;;;8.60;99.90;;;;;;4973196;28;20030;-67
2022/03/27 03:51:56;;;;;;;21.53;14.10;;;;;;;;;;4973734;28;20400;-69
2022/03/27 03:54:22;;;;;;;21.90;13.43;;;;;;;;;;4973947;28;20069;-67
2022/03/27 03:56:48;;;;;;;21.77;11.80;;;;;;;;;;4973944;28;20034;-68
2022/03/27 03:59:14;;;;;;;22.40;13.17;;;8.40;99.90;;;;;;4973424;28;20110;-67
2022/03/27 04:01:39;;;;;;;20.83;13.23;;;8.40;99.90;;;;;;4974210;28;20126;-67
2022/03/27 04:04:06;;;;;;;21.40;13.40;;;;;;;;;;4972354;28;20085;-67
2022/03/27 04:06:31;;;;;;;19.97;11.93;;;8.00;99.90;;;;;;4973683;28;20027;-67
2022/03/27 04:08:57;;;;;;;23.07;14.03;;;;;;;;;;4973447;28;20031;-67
2022/03/27 04:11:23;;;;;;;24.27;13.37;;;8.40;99.90;;;;;;4972097;28;20189;-67
2022/03/27 04:13:49;;;;;;;25.70;14.00;;;;;;;;;;4972785;28;20531;-67
2022/03/27 04:16:15;;;;;;;25.37;16.77;;;8.40;99.90;;;;;;4973476;28;20098;-67
2022/03/27 04:18:41;;;;;;;33.53;16.67;;;8.60;99.90;;;;;;4969645;28;20161;-68
2022/03/27 04:21:07;;;;;;;24.30;14.10;;;8.40;99.90;;;;;;4973211;28;20038;-68
2022/03/27 04:23:33;;;;;;;24.90;14.27;;;;;;;;;;4973146;28;20019;-68
2022/03/27 04:25:58;;;;;;;22.87;13.83;;;8.30;99.90;;;;;;4973196;28;20492;-68
2022/03/27 04:28:24;;;;;;;23.53;13.53;;;;;;;;;;4971365;28;20117;-68
2022/03/27 04:30:50;;;;;;;26.00;14.53;;;8.30;99.90;;;;;;4973117;28;20039;-67
2022/03/27 04:33:16;;;;;;;33.57;16.40;;;;;;;;;;4973205;28;20099;-68
2022/03/27 04:35:42;;;;;;;28.67;15.77;;;8.20;99.90;;;;;;4970163;28;20431;-68
2022/03/27 04:38:08;;;;;;;27.53;14.97;;;;;;;;;;4972876;28;20031;-67
2022/03/27 04:40:34;;;;;;;26.77;15.47;;;8.50;99.90;;;;;;4972963;28;20392;-68
2022/03/27 04:43:00;;;;;;;22.23;13.43;;;8.20;99.90;;;;;;4972217;28;20034;-67
2022/03/27 04:45:25;;;;;;;27.27;15.17;;;8.30;99.90;;;;;;4972773;28;20033;-68
2022/03/27 04:47:51;;;;;;;25.73;14.33;;;8.20;99.90;;;;;;4972238;28;20038;-68
2022/03/27 04:50:16;;;;;;;31.87;16.97;;;8.10;99.90;;;;;;4972733;28;20384;-68
2022/03/27 04:52:42;;;;;;;26.67;15.80;;;8.20;99.90;;;;;;4972967;28;20062;-68
2022/03/27 04:55:08;;;;;;;32.73;16.37;;;;;;;;;;4972630;28;20045;-68
2022/03/27 04:57:38;;;;;;;26.90;15.83;;;8.10;99.90;;;;;;4972026;28;20037;-67
2022/03/27 05:00:14;;;;;;;30.97;16.50;;;8.10;99.90;;;;;;4972679;28;20042;-68
2022/03/27 05:02:41;;;;;;;27.10;15.87;;;8.00;99.90;;;;;;4971855;28;20372;-68
2022/03/27 05:05:10;;;;;;;29.37;15.93;;;8.10;99.90;;;;;;4971820;28;20050;-68
2022/03/27 05:07:37;;;;;;;30.50;16.77;;;8.20;99.90;;;;;;4972662;28;20034;-67
2022/03/27 05:10:04;;;;;;;27.50;15.07;;;8.00;99.90;;;;;;4970989;28;20050;-68
2022/03/27 05:12:30;;;;;;;28.00;14.83;;;8.10;99.90;;;;;;4970731;28;20023;-68
2022/03/27 05:14:56;;;;;;;25.00;14.40;;;;;;;;;;4972250;28;20081;-68
2022/03/27 05:17:21;;;;;;;30.23;15.50;;;8.20;99.90;;;;;;4972305;28;20023;-68
2022/03/27 05:19:47;;;;;;;27.50;15.20;;;;;;;;;;4969281;28;20400;-68
2022/03/27 05:22:14;;;;;;;27.87;15.23;;;7.90;99.90;;;;;;4972646;28;20034;-68
2022/03/27 05:24:40;;;;;;;25.10;14.20;;;8.10;99.90;;;;;;4972280;28;20022;-68
2022/03/27 05:27:05;;;;;;;28.67;15.60;;;7.90;99.90;;;;;;4971664;28;20034;-68
2022/03/27 05:29:31;;;;;;;30.03;16.20;;;;;;;;;;4966774;28;20416;-68
2022/03/27 05:31:58;;;;;;;27.77;15.13;;;7.80;99.90;;;;;;4970137;28;20031;-68
2022/03/27 05:34:24;;;;;;;24.53;14.27;;;7.80;99.90;;;;;;4971963;28;20392;-68
2022/03/27 05:36:50;;;;;;;26.67;15.13;;;7.60;99.90;;;;;;4970220;28;20039;-68
2022/03/27 05:39:16;;;;;;;20.83;13.50;;;;;;;;;;4970563;28;20041;-68
2022/03/27 05:41:43;;;;;;;22.30;14.70;;;7.30;99.90;;;;;;4971625;28;20051;-68
2022/03/27 05:44:08;;;;;;;25.70;14.50;;;7.30;99.90;;;;;;4971776;28;20460;-68
2022/03/27 05:46:34;;;;;;;21.67;13.70;;;7.20;99.90;;;;;;4971658;28;20608;-67
2022/03/27 05:48:59;;;;;;;21.03;13.13;;;7.10;99.90;;;;;;4968172;28;20428;-68
2022/03/27 05:51:25;;;;;;;19.33;12.67;;;7.10;99.90;;;;;;4971925;28;20038;-67
2022/03/27 05:53:50;;;;;;;18.27;12.33;;;7.00;99.90;;;;;;4968288;28;20066;-68
2022/03/27 05:56:16;;;;;;;19.63;12.50;;;7.10;99.90;;;;;;4966280;28;20053;-67
2022/03/27 05:58:42;;;;;;;20.77;12.60;;;;;;;;;;4971836;28;20442;-68
2022/03/27 06:01:08;;;;;;;21.20;13.30;;;7.40;99.90;;;;;;4971473;28;20039;-68
2022/03/27 06:03:34;;;;;;;24.70;14.67;;;;;;;;;;4970752;28;20045;-68
2022/03/27 06:05:59;;;;;;;23.10;14.57;;;6.90;99.90;;;;;;4971345;28;20403;-68
2022/03/27 06:08:25;;;;;;;24.63;13.97;;;;;;;;;;4971223;28;20030;-68
2022/03/27 06:10:51;;;;;;;21.67;13.67;;;6.80;99.90;;;;;;4970108;28;20440;-68
2022/03/27 06:13:19;;;;;;;21.67;12.53;;;;;;;;;;4971240;28;20106;-67
2022/03/27 06:15:45;;;;;;;25.03;14.47;;;6.70;99.90;;;;;;4971449;28;20068;-68
2022/03/27 06:18:11;;;;;;;24.43;14.40;;;;;;;;;;4967485;28;20050;-68
2022/03/27 06:20:38;;;;;;;26.87;15.43;;;6.50;99.90;;;;;;4970411;28;20066;-68
2022/03/27 06:23:06;;;;;;;23.93;15.43;;;6.70;99.90;;;;;;4970971;28;20065;-68
2022/03/27 06:25:32;;;;;;;28.90;14.30;;;6.70;99.90;;;;;;4970997;28;20325;-68
2022/03/27 06:27:57;;;;;;;25.07;13.40;;;6.70;99.90;;;;;;4971047;28;20050;-67
2022/03/27 06:30:26;;;;;;;27.07;15.50;;;5.80;99.90;;;;;;4971009;28;20030;-67
2022/03/27 06:32:54;;;;;;;24.87;14.93;;;6.90;99.90;;;;;;4971040;28;20027;-68
2022/03/27 06:35:22;;;;;;;28.43;14.87;;;7.10;99.90;;;;;;4964863;28;20074;-68
2022/03/27 06:37:48;;;;;;;27.00;15.27;;;7.10;99.90;;;;;;4971189;28;20037;-67
2022/03/27 06:40:15;;;;;;;22.40;12.77;;;7.30;99.90;;;;;;4969642;28;20035;-68
2022/03/27 06:42:43;;;;;;;27.20;14.60;;;7.30;99.90;;;;;;4970896;28;20047;-68
2022/03/27 06:45:10;;;;;;;25.80;15.33;;;7.20;99.90;;;;;;4970925;28;20392;-67
2022/03/27 06:47:36;;;;;;;22.57;13.37;;;7.30;99.90;;;;;;4970835;28;20042;-68
2022/03/27 06:50:04;;;;;;;28.90;14.97;;;7.20;99.90;;;;;;4966550;28;20114;-68
2022/03/27 06:52:31;;;;;;;23.27;15.03;;;7.10;99.90;;;;;;4970970;28;20042;-67
2022/03/27 06:54:57;;;;;;;25.30;14.13;;;;;;;;;;4970371;28;20031;-68
2022/03/27 06:57:23;;;;;;;27.33;16.20;;;7.20;99.90;;;;;;4970873;28;20121;-67
2022/03/27 07:05:20;;;;;;;25.38;14.35;;;7.00;99.90;;;;;;4970415;28;20038;-68
2022/03/27 07:07:45;;;;;;;24.10;15.63;;;7.20;99.90;;;;;;4970762;28;20080;-68
2022/03/27 07:10:11;;;;;;;22.87;14.90;;;;;;;;;;4970443;28;20071;-67
2022/03/27 07:12:41;;;;;;;25.47;14.93;;;6.90;99.90;;;;;;4970700;28;20054;-68
2022/03/27 07:15:08;;;;;;;21.40;14.07;;;7.30;99.90;;;;;;4970495;28;20089;-68
2022/03/27 07:17:46;;;;;;;25.70;14.97;;;7.50;99.90;;;;;;4970670;28;20061;-67
2022/03/27 07:20:12;;;;;;;23.97;13.53;;;7.40;99.90;;;;;;4970240;28;20030;-67
2022/03/27 07:22:39;;;;;;;24.70;13.87;;;7.50;99.90;;;;;;4970076;28;20043;-67
2022/03/27 07:25:07;;;;;;;23.50;13.57;;;7.30;99.90;;;;;;4970528;28;20477;-70
2022/03/27 07:27:33;;;;;;;21.50;13.27;;;7.60;99.90;;;;;;4970395;28;20491;-70
2022/03/27 07:29:59;;;;;;;23.83;14.03;;;;;;;;;;4969827;28;20027;-69
2022/03/27 07:32:25;;;;;;;25.73;13.60;;;;;;;;;;4969485;28;20049;-69
2022/03/27 07:34:52;;;;;;;24.37;14.33;;;7.60;99.90;;;;;;4964354;28;20416;-69
2022/03/27 07:37:17;;;;;;;22.63;14.17;;;7.60;99.90;;;;;;4968752;28;20073;-70
2022/03/27 07:39:43;;;;;;;22.17;13.67;;;7.60;99.90;;;;;;4969857;28;20066;-69
2022/03/27 07:42:08;;;;;;;23.00;14.13;;;7.70;99.90;;;;;;4969035;28;20077;-69
2022/03/27 07:44:34;;;;;;;28.50;14.77;;;7.70;99.90;;;;;;4965448;28;20038;-70
2022/03/27 07:47:00;;;;;;;21.20;12.83;;;;;;;;;;4969232;28;20019;-69
2022/03/27 07:49:26;;;;;;;21.67;12.43;;;7.70;99.90;;;;;;4969460;28;20023;-68
2022/03/27 07:51:53;;;;;;;21.77;12.93;;;8.20;99.90;;;;;;4967840;28;20066;-68
2022/03/27 07:54:19;;;;;;;20.43;12.50;;;7.90;99.90;;;;;;4969228;28;20038;-69
2022/03/27 07:56:45;;;;;;;25.97;12.73;;;8.00;99.90;;;;;;4967619;28;20035;-68
2022/03/27 07:59:10;;;;;;;22.57;13.77;;;8.20;99.90;;;;;;4970643;28;20420;-69
2022/03/27 08:01:36;;;;;;;23.17;13.53;;;8.30;99.90;;;;;;4973323;28;20053;-69
2022/03/27 08:04:02;;;;;;;23.10;12.57;;;8.40;99.90;;;;;;4973793;28;20023;-69
2022/03/27 08:06:29;;;;;;;20.60;12.13;;;;;;;;;;4973234;28;20118;-69
2022/03/27 08:08:56;;;;;;;21.33;13.30;;;8.40;99.90;;;;;;4972175;28;20110;-69
2022/03/27 08:11:23;;;;;;;22.60;13.77;;;8.30;99.90;;;;;;4973145;28;20081;-68
2022/03/27 08:13:49;;;;;;;22.90;13.03;;;;;;;;;;4973409;28;20027;-68
2022/03/27 08:16:15;;;;;;;24.30;14.73;;;;;;;;;;4971529;28;20080;-69
2022/03/27 08:18:42;;;;;;;27.10;14.60;;;8.60;99.90;;;;;;4973034;28;20035;-69
2022/03/27 08:21:08;;;;;;;22.97;13.77;;;;;;;;;;4972267;28;20582;-69
2022/03/27 08:23:33;;;;;;;20.43;12.60;;;8.80;99.90;;;;;;4972600;28;20031;-69
2022/03/27 08:28:44;;;;;;;23.03;14.13;;;8.80;99.90;;;;;;4973490;28;20515;-69
2022/03/27 08:31:10;;;;;;;20.67;12.80;;;;;;;;;;4968839;28;20023;-67
2022/03/27 08:33:36;;;;;;;26.60;14.60;;;;;;;;;;4973044;28;20042;-69
2022/03/27 08:36:02;;;;;;;20.80;12.93;;;;;;;;;;4972354;28;20529;-70
2022/03/27 08:38:28;;;;;;;27.53;14.40;;;;;;;;;;4972192;28;20142;-69
2022/03/27 08:40:55;;;;;;;20.67;14.33;;;9.00;99.90;;;;;;4972031;28;20050;-69
2022/03/27 08:43:22;;;;;;;25.13;13.80;;;9.10;99.90;;;;;;4972483;28;20026;-69
2022/03/27 08:45:48;;;;;;;19.67;13.73;;;;;;;;;;4972335;28;20019;-69
2022/03/27 08:48:15;;;;;;;20.00;13.37;;;9.10;99.90;;;;;;4973234;28;20042;-69
2022/03/27 08:51:04;;;;;;;23.10;14.07;;;9.10;99.90;;;;;;4972561;28;20377;-69
2022/03/27 08:53:40;;;;;;;21.40;12.73;;;9.10;99.90;;;;;;4972790;28;20066;-68
2022/03/27 08:56:06;;;;;;;21.93;13.83;;;9.30;99.90;;;;;;4972502;28;20023;-69
2022/03/27 08:58:35;;;;;;;23.57;14.73;;;9.20;99.90;;;;;;4973011;28;20158;-69
2022/03/27 09:01:02;;;;;;;22.90;14.97;;;9.60;99.90;;;;;;4969588;28;20027;-69
2022/03/27 09:03:28;;;;;;;20.70;13.20;;;;;;;;;;4971804;28;20038;-69
2022/03/27 09:05:54;;;;;;;24.43;13.43;;;;;;;;;;4970825;28;20031;-69
2022/03/27 09:08:20;;;;;;;19.37;12.43;;;9.70;99.90;;;;;;4972557;28;20027;-69
2022/03/27 09:10:45;;;;;;;19.43;13.67;;;9.80;99.90;;;;;;4972263;28;20506;-69
2022/03/27 09:13:16;;;;;;;22.33;13.83;;;10.00;99.90;;;;;;4972631;28;20093;-69
2022/03/27 09:15:45;;;;;;;21.93;14.30;;;10.00;99.90;;;;;;4972211;28;20117;-69
2022/03/27 09:18:13;;;;;;;21.33;13.07;;;10.50;99.90;;;;;;4971739;28;20456;-68
2022/03/27 09:20:48;;;;;;;19.40;11.60;;;9.80;99.90;;;;;;4972122;28;20019;-69
2022/03/27 09:23:26;;;;;;;27.27;15.23;;;10.10;99.90;;;;;;4972331;28;20535;-69
2022/03/27 09:26:02;;;;;;;24.50;14.97;;;10.30;99.90;;;;;;4972068;28;20058;-69
2022/03/27 09:28:42;;;;;;;25.10;16.33;;;10.50;99.60;;;;;;4971854;28;20487;-69
2022/03/27 09:31:13;;;;;;;22.43;15.13;;;10.30;99.90;;;;;;4970050;28;20046;-69
2022/03/27 09:33:46;;;;;;;23.13;13.47;;;10.50;99.90;;;;;;4971600;28;20077;-69
2022/03/27 09:36:30;;;;;;;19.47;13.20;;;10.30;99.90;;;;;;4971980;28;20035;-69
2022/03/27 09:39:05;;;;;;;19.93;13.80;;;10.70;99.90;;;;;;4972078;28;20029;-69
2022/03/27 09:41:41;;;;;;;26.07;16.13;;;10.60;98.90;;;;;;4971818;28;20038;-69
2022/03/27 09:44:28;;;;;;;23.03;14.77;;;10.80;99.90;;;;;;4971855;28;20387;-69
2022/03/27 09:47:10;;;;;;;23.33;13.87;;;10.80;98.20;;;;;;4970445;28;20039;-69
2022/03/27 09:49:36;;;;;;;23.47;14.20;;;10.90;99.90;;;;;;4971815;28;20027;-69
2022/03/27 09:52:08;;;;;;;17.40;11.87;;;10.90;99.90;;;;;;4971779;28;20038;-69
2022/03/27 09:54:51;;;;;;;20.33;13.73;;;10.60;99.90;;;;;;4954334;28;20041;-69
2022/03/27 09:57:25;;;;;;;19.17;13.00;;;10.70;99.90;;;;;;4971734;28;20069;-69
2022/03/27 09:59:53;;;;;;;17.50;12.27;;;10.80;97.30;;;;;;4970540;28;20100;-69
2022/03/27 10:02:21;;;;;;;18.77;12.57;;;10.90;99.90;;;;;;4970372;28;20042;-69
2022/03/27 10:04:55;;;;;;;18.67;13.15;;;11.10;99.90;;;;;;4971723;28;20562;-69
2022/03/27 10:07:22;;;;;;;16.50;11.63;;;11.10;99.90;;;;;;4971543;28;20383;-69
2022/03/27 10:09:48;;;;;;;16.57;12.23;;;;;;;;;;4971436;28;20391;-69
2022/03/27 10:12:16;;;;;;;17.50;11.27;;;11.30;95.80;;;;;;4971050;28;20448;-71
2022/03/27 10:14:44;;;;;;;18.30;12.37;;;11.40;99.90;;;;;;4971053;28;20037;-69
2022/03/27 10:17:11;;;;;;;18.38;12.07;;;11.20;99.90;;;;;;4965850;28;20029;-69
2022/03/27 10:19:43;;;;;;;15.88;12.05;;;11.40;99.90;;;;;;4971023;28;20457;-70
2022/03/27 10:22:11;;;;;;;19.83;12.27;;;11.40;99.90;;;;;;4970951;28;20333;-69
2022/03/27 10:24:40;;;;;;;21.47;13.37;;;11.70;99.90;;;;;;4970883;28;20023;-69
2022/03/27 10:27:06;;;;;;;17.38;11.77;;;11.70;99.90;;;;;;4970816;28;20468;-69
2022/03/27 10:29:32;;;;;;;16.00;12.00;;;;;;;;;;4964487;28;20089;-69
2022/03/27 10:31:59;;;;;;;19.48;12.98;;;11.60;99.90;;;;;;4965578;28;20484;-69
2022/03/27 10:34:25;;;;;;;19.23;12.10;;;11.60;99.90;;;;;;4970739;28;20031;-69
2022/03/27 10:36:59;;;;;;;19.80;12.90;;;11.60;99.90;;;;;;4970820;28;20058;-70
2022/03/27 10:39:37;;;;;;;19.17;12.68;;;11.90;99.90;;;;;;4970862;28;20027;-71
2022/03/27 10:42:22;;;;;;;21.00;13.87;;;12.10;93.70;;;;;;4959437;28;20524;-70
2022/03/27 10:44:56;;;;;;;17.50;12.57;;;12.00;94.60;;;;;;4964700;28;20097;-70
2022/03/27 10:47:24;;;;;;;18.63;13.33;;;12.10;99.90;;;;;;4966467;28;20504;-71
2022/03/27 10:50:01;;;;;;;17.20;11.97;;;12.20;98.90;;;;;;4955214;28;20063;-71
2022/03/27 10:52:36;;;;;;;16.35;10.68;;;12.20;99.90;;;;;;4970317;28;20023;-70
2022/03/27 10:55:08;;;;;;;19.42;11.70;;;12.20;93.50;;;;;;4970722;28;20058;-71
2022/03/27 10:57:37;;;;;;;16.30;10.55;;;12.30;99.90;;;;;;4969943;28;20062;-71
2022/03/27 11:00:07;;;;;;;15.30;11.30;;;11.80;99.50;;;;;;4969936;28;20035;-71
2022/03/27 11:02:49;;;;;;;14.85;11.15;;;12.10;93.70;;;;;;4968661;28;20200;-71
2022/03/27 11:05:35;;;;;;;18.50;11.32;;;12.10;99.30;;;;;;4976502;28;20027;-70
2022/03/27 11:08:18;;;;;;;16.35;10.07;;;12.20;99.30;;;;;;4968234;28;20069;-70
2022/03/27 11:10:54;;;;;;;15.73;11.00;;;12.40;91.70;;;;;;4973072;28;20055;-71
2022/03/27 11:13:25;;;;;;;18.25;11.32;;;12.40;90.90;;;;;;4969719;28;20270;-70
2022/03/27 11:16:05;;;;;;;15.10;10.50;;;12.10;98.60;;;;;;4966187;28;20026;-71
2022/03/27 11:18:40;;;;;;;14.70;10.25;;;12.50;98.60;;;;;;4970417;28;20483;-71
2022/03/27 11:21:10;;;;;;;15.13;10.00;;;12.40;91.50;;;;;;4968802;28;20035;-70
2022/03/27 11:23:38;;;;;;;12.50;8.82;;;12.60;98.40;;;;;;4970543;28;20027;-70
2022/03/27 11:26:24;;;;;;;13.60;9.53;;;12.50;98.10;;;;;;4970443;28;20499;-71
2022/03/27 11:28:56;;;;;;;14.75;8.48;;;12.60;98.30;;;;;;4969738;28;20034;-71
2022/03/27 11:31:29;;;;;;;12.93;8.93;;;12.50;98.20;;;;;;4972622;28;20031;-71
2022/03/27 11:34:07;;;;;;;16.77;9.85;;;12.70;97.60;;;;;;4979505;28;20065;-71
2022/03/27 11:36:35;;;;;;;17.33;9.50;;;12.60;97.10;;;;;;4974122;28;20117;-71
2022/03/27 11:39:07;;;;;;;13.43;8.95;;;12.70;90.10;;;;;;4979504;28;20388;-70
2022/03/27 11:41:42;;;;;;;11.85;7.97;;;12.70;88.50;;;;;;4973656;28;20042;-71
2022/03/27 11:44:22;;;;;;;15.60;9.23;;;12.80;97.20;;;;;;4973427;28;20576;-71
2022/03/27 11:46:48;;;;;;;15.18;8.90;;;12.70;89.90;;;;;;4968170;28;20035;-71
2022/03/27 11:49:14;;;;;;;16.52;8.75;;;12.40;96.70;;;;;;4973755;28;20173;-71
2022/03/27 11:51:40;;;;;;;12.00;7.75;;;13.00;92.00;;;;;;4973690;28;20075;-72
2022/03/27 11:54:21;;;;;;;10.82;6.68;;;13.10;97.00;;;;;;4969020;28;20034;-70
2022/03/27 11:56:58;;;;;;;12.65;7.70;;;12.60;96.40;;;;;;4973882;28;20473;-71
2022/03/27 11:59:26;;;;;;;13.75;7.78;;;13.30;93.00;;;;;;4971740;28;20027;-72
2022/03/27 12:01:53;;;;;;;11.18;8.05;;;13.20;87.70;;;;;;4980308;28;20046;-72
2022/03/27 12:04:19;;;;;;;10.88;6.75;;;13.00;95.20;;;;;;4972150;28;20034;-73
2022/03/27 12:06:45;;;;;;;11.57;7.57;;;13.20;95.00;;;;;;4973474;28;20030;-72
2022/03/27 12:09:29;;;;;;;10.55;5.50;;;13.30;94.30;;;;;;4973420;28;20033;-72
2022/03/27 12:12:13;;;;;;;12.55;7.78;;;13.20;83.20;;;;;;4962079;28;20070;-72
2022/03/27 12:14:57;;;;;;;13.93;7.18;;;13.50;93.20;;;;;;4956260;28;20062;-72
2022/03/27 12:17:24;;;;;;;10.52;6.95;;;13.40;85.30;;;;;;4973359;28;20519;-72
2022/03/27 12:20:08;;;;;;;14.93;7.32;;;13.60;94.60;;;;;;4964188;28;20181;-73
2022/03/27 12:22:38;;;;;;;15.55;7.25;;;13.50;94.50;;;;;;4972784;28;20145;-72
2022/03/27 12:25:17;;;;;;;9.57;6.07;;;13.30;94.60;;;;;;4973643;28;20123;-72
2022/03/27 12:30:34;;;;;;;9.60;5.90;;;13.40;93.80;;;;;;4973423;28;20115;-73
2022/03/27 12:33:03;;;;;;;10.80;5.32;;;13.30;94.90;;;;;;4972987;28;20029;-72
2022/03/27 12:35:30;;;;;;;10.05;6.03;;;13.60;95.00;;;;;;4973216;28;20033;-72
2022/03/27 12:37:56;;;;;;;10.30;7.80;;;13.90;94.20;;;;;;4972444;28;20027;-71
2022/03/27 12:40:22;;;;;;;7.60;5.30;;;13.80;94.10;;;;;;4970476;28;20070;-71
2022/03/27 12:42:49;;;;;;;12.65;6.40;;;13.10;83.10;;;;;;4972686;28;20042;-72
2022/03/27 12:45:21;;;;;;;9.63;6.43;;;13.90;94.10;;;;;;4972856;28;20053;-72
2022/03/27 12:47:49;;;;;;;11.63;6.63;;;13.50;94.00;;;;;;4973179;28;20086;-72
2022/03/27 12:50:27;;;;;;;10.50;5.20;;;13.80;94.10;;;;;;4973167;28;20023;-70
2022/03/27 12:52:57;;;;;;;10.15;6.53;;;13.60;93.70;;;;;;4972703;28;20034;-70
2022/03/27 12:55:39;;;;;;;11.48;6.35;;;13.90;80.20;;;;;;4972859;28;20026;-69
2022/03/27 12:58:05;;;;;;;10.05;5.53;;;14.20;93.20;;;;;;4972770;28;20019;-72
2022/03/27 13:00:32;;;;;;;14.65;6.82;;;13.90;93.00;;;;;;4971528;28;20377;-70
2022/03/27 13:03:19;;;;;;;9.32;5.85;;;14.10;79.40;;;;;;4969340;28;20085;-71
2022/03/27 13:05:53;;;;;;;9.05;5.18;;;14.10;82.80;;;;;;4971532;28;20105;-70
2022/03/27 13:08:28;;;;;;;;;;;14.10;83.30;;;;;;4972361;28;20051;-70
2022/03/27 13:10:57;;;;;;;10.32;5.30;;;14.00;93.40;;;;;;4971512;28;19928;-70